sensor_id;sensor_type;location;lat;lon;timestamp;temperature;humidity
13332;DHT22;6735;51.456;12.626;2023-07-02T00:01:20;18.30;86.00
13332;DHT22;6735;51.456;12.626;2023-07-02T00:03:46;18.30;86.00
13332;DHT22;6735;51.456;12.626;2023-07-02T00:06:11;18.20;85.90
13332;DHT22;6735;51.456;12.626;2023-07-02T00:08:37;18.30;85.90
13332;DHT22;6735;51.456;12.626;2023-07-02T00:11:02;18.30;85.80
13332;DHT22;6735;51.456;12.626;2023-07-02T00:13:28;18.30;85.80
13332;DHT22;6735;51.456;12.626;2023-07-02T00:15:53;18.40;85.90
13332;DHT22;6735;51.456;12.626;2023-07-02T00:18:19;18.30;85.70
13332;DHT22;6735;51.456;12.626;2023-07-02T00:20:44;18.40;85.60
13332;DHT22;6735;51.456;12.626;2023-07-02T00:23:09;18.40;85.50
13332;DHT22;6735;51.456;12.626;2023-07-02T00:25:36;18.40;85.20
13332;DHT22;6735;51.456;12.626;2023-07-02T00:28:02;18.40;85.10
13332;DHT22;6735;51.456;12.626;2023-07-02T00:30:27;18.40;85.10
13332;DHT22;6735;51.456;12.626;2023-07-02T00:32:53;18.40;85.10
13332;DHT22;6735;51.456;12.626;2023-07-02T00:35:18;18.40;85.10
13332;DHT22;6735;51.456;12.626;2023-07-02T00:37:44;18.40;85.20
13332;DHT22;6735;51.456;12.626;2023-07-02T00:40:09;18.40;85.20
13332;DHT22;6735;51.456;12.626;2023-07-02T00:42:35;18.40;85.20
13332;DHT22;6735;51.456;12.626;2023-07-02T00:45:00;18.50;85.10
13332;DHT22;6735;51.456;12.626;2023-07-02T00:47:28;18.50;85.10
13332;DHT22;6735;51.456;12.626;2023-07-02T00:49:55;18.50;85.20
13332;DHT22;6735;51.456;12.626;2023-07-02T00:52:20;18.50;85.20
13332;DHT22;6735;51.456;12.626;2023-07-02T00:54:46;18.50;85.20
13332;DHT22;6735;51.456;12.626;2023-07-02T00:57:12;18.60;85.00
13332;DHT22;6735;51.456;12.626;2023-07-02T00:59:37;18.60;85.00
13332;DHT22;6735;51.456;12.626;2023-07-02T01:02:04;18.50;84.90
13332;DHT22;6735;51.456;12.626;2023-07-02T01:04:30;18.60;84.80
13332;DHT22;6735;51.456;12.626;2023-07-02T01:06:57;18.50;85.20
13332;DHT22;6735;51.456;12.626;2023-07-02T01:09:23;18.50;85.70
13332;DHT22;6735;51.456;12.626;2023-07-02T01:11:55;18.40;85.80
13332;DHT22;6735;51.456;12.626;2023-07-02T01:14:34;18.20;85.80
13332;DHT22;6735;51.456;12.626;2023-07-02T01:17:01;18.10;86.10
13332;DHT22;6735;51.456;12.626;2023-07-02T01:19:46;18.00;86.20
13332;DHT22;6735;51.456;12.626;2023-07-02T01:22:23;18.00;86.10
13332;DHT22;6735;51.456;12.626;2023-07-02T01:24:50;17.90;85.90
13332;DHT22;6735;51.456;12.626;2023-07-02T01:27:16;17.80;85.30
13332;DHT22;6735;51.456;12.626;2023-07-02T01:29:42;17.70;85.00
13332;DHT22;6735;51.456;12.626;2023-07-02T01:32:10;17.70;85.10
13332;DHT22;6735;51.456;12.626;2023-07-02T01:34:36;17.70;85.20
13332;DHT22;6735;51.456;12.626;2023-07-02T01:37:03;17.70;85.20
13332;DHT22;6735;51.456;12.626;2023-07-02T01:39:29;17.70;85.10
13332;DHT22;6735;51.456;12.626;2023-07-02T01:42:07;17.70;85.20
13332;DHT22;6735;51.456;12.626;2023-07-02T01:44:33;17.70;85.40
13332;DHT22;6735;51.456;12.626;2023-07-02T01:46:58;17.70;85.30
13332;DHT22;6735;51.456;12.626;2023-07-02T01:49:24;17.70;85.20
13332;DHT22;6735;51.456;12.626;2023-07-02T01:51:54;17.70;84.70
13332;DHT22;6735;51.456;12.626;2023-07-02T01:54:21;17.60;84.80
13332;DHT22;6735;51.456;12.626;2023-07-02T01:56:46;17.60;84.80
13332;DHT22;6735;51.456;12.626;2023-07-02T01:59:12;17.60;85.00
13332;DHT22;6735;51.456;12.626;2023-07-02T02:01:38;17.60;85.10
13332;DHT22;6735;51.456;12.626;2023-07-02T02:04:07;17.60;85.30
13332;DHT22;6735;51.456;12.626;2023-07-02T02:06:33;17.70;85.40
13332;DHT22;6735;51.456;12.626;2023-07-02T02:08:59;17.70;85.50
13332;DHT22;6735;51.456;12.626;2023-07-02T02:11:25;17.70;85.50
13332;DHT22;6735;51.456;12.626;2023-07-02T02:13:51;17.70;85.40
13332;DHT22;6735;51.456;12.626;2023-07-02T02:16:16;17.70;85.60
13332;DHT22;6735;51.456;12.626;2023-07-02T02:18:42;17.70;85.60
13332;DHT22;6735;51.456;12.626;2023-07-02T02:21:07;17.70;85.60
13332;DHT22;6735;51.456;12.626;2023-07-02T02:23:33;17.70;85.70
13332;DHT22;6735;51.456;12.626;2023-07-02T02:25:59;17.70;85.80
13332;DHT22;6735;51.456;12.626;2023-07-02T02:28:24;17.70;85.90
13332;DHT22;6735;51.456;12.626;2023-07-02T02:30:50;17.70;85.90
13332;DHT22;6735;51.456;12.626;2023-07-02T02:33:15;17.70;85.80
13332;DHT22;6735;51.456;12.626;2023-07-02T02:35:40;17.70;86.10
13332;DHT22;6735;51.456;12.626;2023-07-02T02:38:06;17.70;86.10
13332;DHT22;6735;51.456;12.626;2023-07-02T02:40:31;17.70;86.10
13332;DHT22;6735;51.456;12.626;2023-07-02T02:42:57;17.70;86.10
13332;DHT22;6735;51.456;12.626;2023-07-02T02:45:22;17.70;86.00
13332;DHT22;6735;51.456;12.626;2023-07-02T02:47:48;17.60;86.30
13332;DHT22;6735;51.456;12.626;2023-07-02T02:50:13;17.60;86.30
13332;DHT22;6735;51.456;12.626;2023-07-02T02:52:39;17.60;86.50
13332;DHT22;6735;51.456;12.626;2023-07-02T02:55:06;17.70;86.40
13332;DHT22;6735;51.456;12.626;2023-07-02T02:57:32;17.70;86.50
13332;DHT22;6735;51.456;12.626;2023-07-02T02:59:58;17.70;86.50
13332;DHT22;6735;51.456;12.626;2023-07-02T03:02:24;17.70;86.60
13332;DHT22;6735;51.456;12.626;2023-07-02T03:04:49;17.80;86.60
13332;DHT22;6735;51.456;12.626;2023-07-02T03:07:15;17.80;86.60
13332;DHT22;6735;51.456;12.626;2023-07-02T03:09:41;17.80;86.70
13332;DHT22;6735;51.456;12.626;2023-07-02T03:12:06;17.70;86.80
13332;DHT22;6735;51.456;12.626;2023-07-02T03:14:32;17.80;87.10
13332;DHT22;6735;51.456;12.626;2023-07-02T03:16:58;17.70;87.30
13332;DHT22;6735;51.456;12.626;2023-07-02T03:19:24;17.80;87.40
13332;DHT22;6735;51.456;12.626;2023-07-02T03:21:49;17.80;87.60
13332;DHT22;6735;51.456;12.626;2023-07-02T03:24:14;17.80;87.50
13332;DHT22;6735;51.456;12.626;2023-07-02T03:26:42;17.80;87.50
13332;DHT22;6735;51.456;12.626;2023-07-02T03:29:07;17.80;87.40
13332;DHT22;6735;51.456;12.626;2023-07-02T03:31:33;17.80;87.50
13332;DHT22;6735;51.456;12.626;2023-07-02T03:34:06;17.80;87.60
13332;DHT22;6735;51.456;12.626;2023-07-02T03:36:32;17.90;87.70
13332;DHT22;6735;51.456;12.626;2023-07-02T03:38:58;17.80;87.80
13332;DHT22;6735;51.456;12.626;2023-07-02T03:41:23;17.80;87.70
13332;DHT22;6735;51.456;12.626;2023-07-02T03:43:49;17.90;87.60
13332;DHT22;6735;51.456;12.626;2023-07-02T03:46:14;17.90;87.50
13332;DHT22;6735;51.456;12.626;2023-07-02T03:48:40;17.90;87.60
13332;DHT22;6735;51.456;12.626;2023-07-02T03:51:06;17.90;87.40
13332;DHT22;6735;51.456;12.626;2023-07-02T03:53:32;17.90;87.40
13332;DHT22;6735;51.456;12.626;2023-07-02T03:55:58;17.90;87.20
13332;DHT22;6735;51.456;12.626;2023-07-02T03:58:23;17.90;86.80
13332;DHT22;6735;51.456;12.626;2023-07-02T04:00:49;17.90;86.80
13332;DHT22;6735;51.456;12.626;2023-07-02T04:03:15;17.90;86.60
13332;DHT22;6735;51.456;12.626;2023-07-02T04:05:42;17.90;86.50
13332;DHT22;6735;51.456;12.626;2023-07-02T04:08:07;17.90;86.60
13332;DHT22;6735;51.456;12.626;2023-07-02T04:10:32;17.80;86.70
13332;DHT22;6735;51.456;12.626;2023-07-02T04:12:58;17.90;86.80
13332;DHT22;6735;51.456;12.626;2023-07-02T04:15:23;17.90;86.70
13332;DHT22;6735;51.456;12.626;2023-07-02T04:17:50;17.90;86.60
13332;DHT22;6735;51.456;12.626;2023-07-02T04:20:16;17.90;86.50
13332;DHT22;6735;51.456;12.626;2023-07-02T04:22:44;17.90;86.50
13332;DHT22;6735;51.456;12.626;2023-07-02T04:25:11;17.90;86.70
13332;DHT22;6735;51.456;12.626;2023-07-02T04:27:36;17.90;86.80
13332;DHT22;6735;51.456;12.626;2023-07-02T04:30:02;17.90;86.70
13332;DHT22;6735;51.456;12.626;2023-07-02T04:32:28;17.90;86.50
13332;DHT22;6735;51.456;12.626;2023-07-02T04:34:53;17.90;86.40
13332;DHT22;6735;51.456;12.626;2023-07-02T04:37:19;18.00;86.40
13332;DHT22;6735;51.456;12.626;2023-07-02T04:39:44;18.00;86.20
13332;DHT22;6735;51.456;12.626;2023-07-02T04:42:10;18.00;85.90
13332;DHT22;6735;51.456;12.626;2023-07-02T04:44:35;18.00;85.80
13332;DHT22;6735;51.456;12.626;2023-07-02T04:47:01;18.00;85.50
13332;DHT22;6735;51.456;12.626;2023-07-02T04:49:27;18.00;85.40
13332;DHT22;6735;51.456;12.626;2023-07-02T04:51:53;18.10;85.50
13332;DHT22;6735;51.456;12.626;2023-07-02T04:54:20;18.10;85.10
13332;DHT22;6735;51.456;12.626;2023-07-02T04:56:46;18.20;85.00
13332;DHT22;6735;51.456;12.626;2023-07-02T04:59:12;18.10;84.70
13332;DHT22;6735;51.456;12.626;2023-07-02T05:01:37;18.20;84.90
13332;DHT22;6735;51.456;12.626;2023-07-02T05:04:04;18.20;84.90
13332;DHT22;6735;51.456;12.626;2023-07-02T05:06:30;18.20;84.80
13332;DHT22;6735;51.456;12.626;2023-07-02T05:08:55;18.20;84.40
13332;DHT22;6735;51.456;12.626;2023-07-02T05:11:21;18.30;84.30
13332;DHT22;6735;51.456;12.626;2023-07-02T05:13:46;18.30;84.20
13332;DHT22;6735;51.456;12.626;2023-07-02T05:16:12;18.30;83.80
13332;DHT22;6735;51.456;12.626;2023-07-02T05:18:38;18.40;83.60
13332;DHT22;6735;51.456;12.626;2023-07-02T05:21:04;18.40;83.20
13332;DHT22;6735;51.456;12.626;2023-07-02T05:23:29;18.60;83.20
13332;DHT22;6735;51.456;12.626;2023-07-02T05:25:54;18.80;83.10
13332;DHT22;6735;51.456;12.626;2023-07-02T05:28:20;18.90;82.80
13332;DHT22;6735;51.456;12.626;2023-07-02T05:30:45;19.60;81.70
13332;DHT22;6735;51.456;12.626;2023-07-02T05:33:11;20.60;78.20
13332;DHT22;6735;51.456;12.626;2023-07-02T05:35:36;20.60;78.20
13332;DHT22;6735;51.456;12.626;2023-07-02T05:38:02;20.50;77.90
13332;DHT22;6735;51.456;12.626;2023-07-02T05:40:27;20.60;77.80
13332;DHT22;6735;51.456;12.626;2023-07-02T05:42:53;20.40;77.70
13332;DHT22;6735;51.456;12.626;2023-07-02T05:45:19;20.30;78.00
13332;DHT22;6735;51.456;12.626;2023-07-02T05:47:44;20.20;78.40
13332;DHT22;6735;51.456;12.626;2023-07-02T05:50:09;20.20;78.20
13332;DHT22;6735;51.456;12.626;2023-07-02T05:52:35;20.20;78.00
13332;DHT22;6735;51.456;12.626;2023-07-02T05:55:00;20.30;78.00
13332;DHT22;6735;51.456;12.626;2023-07-02T05:57:26;20.30;77.10
13332;DHT22;6735;51.456;12.626;2023-07-02T05:59:52;20.50;77.10
13332;DHT22;6735;51.456;12.626;2023-07-02T06:02:17;20.70;76.50
13332;DHT22;6735;51.456;12.626;2023-07-02T06:04:42;21.10;75.90
13332;DHT22;6735;51.456;12.626;2023-07-02T06:07:08;21.20;75.50
13332;DHT22;6735;51.456;12.626;2023-07-02T06:09:33;21.10;75.40
13332;DHT22;6735;51.456;12.626;2023-07-02T06:11:59;21.00;75.30
13332;DHT22;6735;51.456;12.626;2023-07-02T06:14:24;21.20;74.40
13332;DHT22;6735;51.456;12.626;2023-07-02T06:16:51;22.70;70.60
13332;DHT22;6735;51.456;12.626;2023-07-02T06:19:17;23.40;69.50
13332;DHT22;6735;51.456;12.626;2023-07-02T06:21:43;24.20;67.20
13332;DHT22;6735;51.456;12.626;2023-07-02T06:24:08;23.70;67.80
13332;DHT22;6735;51.456;12.626;2023-07-02T06:26:34;23.70;67.00
13332;DHT22;6735;51.456;12.626;2023-07-02T06:28:59;24.10;65.00
13332;DHT22;6735;51.456;12.626;2023-07-02T06:31:25;24.20;64.00
13332;DHT22;6735;51.456;12.626;2023-07-02T06:33:50;24.20;64.80
13332;DHT22;6735;51.456;12.626;2023-07-02T06:36:16;24.50;64.30
13332;DHT22;6735;51.456;12.626;2023-07-02T06:38:43;24.20;63.00
13332;DHT22;6735;51.456;12.626;2023-07-02T06:41:08;24.30;63.20
13332;DHT22;6735;51.456;12.626;2023-07-02T06:43:34;24.30;63.10
13332;DHT22;6735;51.456;12.626;2023-07-02T06:45:59;24.50;62.20
13332;DHT22;6735;51.456;12.626;2023-07-02T06:48:25;24.60;61.60
13332;DHT22;6735;51.456;12.626;2023-07-02T06:50:50;24.50;61.20
13332;DHT22;6735;51.456;12.626;2023-07-02T06:53:16;24.50;60.80
13332;DHT22;6735;51.456;12.626;2023-07-02T06:55:41;24.40;59.60
13332;DHT22;6735;51.456;12.626;2023-07-02T06:58:08;25.10;57.70
13332;DHT22;6735;51.456;12.626;2023-07-02T07:00:34;25.90;56.00
13332;DHT22;6735;51.456;12.626;2023-07-02T07:03:02;26.30;55.20
13332;DHT22;6735;51.456;12.626;2023-07-02T07:05:29;26.60;54.60
13332;DHT22;6735;51.456;12.626;2023-07-02T07:07:54;26.80;52.30
13332;DHT22;6735;51.456;12.626;2023-07-02T07:10:20;26.60;53.80
13332;DHT22;6735;51.456;12.626;2023-07-02T07:12:45;26.70;53.30
13332;DHT22;6735;51.456;12.626;2023-07-02T07:15:11;27.00;52.20
13332;DHT22;6735;51.456;12.626;2023-07-02T07:17:36;26.20;53.30
13332;DHT22;6735;51.456;12.626;2023-07-02T07:20:02;26.10;52.80
13332;DHT22;6735;51.456;12.626;2023-07-02T07:22:30;25.50;53.60
13332;DHT22;6735;51.456;12.626;2023-07-02T07:24:56;25.20;52.40
13332;DHT22;6735;51.456;12.626;2023-07-02T07:27:21;25.60;51.50
13332;DHT22;6735;51.456;12.626;2023-07-02T07:29:47;25.70;50.70
13332;DHT22;6735;51.456;12.626;2023-07-02T07:32:12;25.90;49.90
13332;DHT22;6735;51.456;12.626;2023-07-02T07:34:38;25.80;50.40
13332;DHT22;6735;51.456;12.626;2023-07-02T07:37:04;25.30;47.70
13332;DHT22;6735;51.456;12.626;2023-07-02T07:39:30;25.00;50.00
13332;DHT22;6735;51.456;12.626;2023-07-02T07:41:55;25.10;48.60
13332;DHT22;6735;51.456;12.626;2023-07-02T07:44:21;24.90;49.30
13332;DHT22;6735;51.456;12.626;2023-07-02T07:46:46;24.90;48.80
13332;DHT22;6735;51.456;12.626;2023-07-02T07:49:13;25.00;49.10
13332;DHT22;6735;51.456;12.626;2023-07-02T07:51:38;24.80;49.40
13332;DHT22;6735;51.456;12.626;2023-07-02T07:54:04;24.70;49.60
13332;DHT22;6735;51.456;12.626;2023-07-02T07:56:29;24.70;49.90
13332;DHT22;6735;51.456;12.626;2023-07-02T07:58:55;24.70;49.90
13332;DHT22;6735;51.456;12.626;2023-07-02T08:01:20;24.60;50.30
13332;DHT22;6735;51.456;12.626;2023-07-02T08:03:46;24.10;50.90
13332;DHT22;6735;51.456;12.626;2023-07-02T08:06:11;23.80;51.90
13332;DHT22;6735;51.456;12.626;2023-07-02T08:08:37;23.20;52.90
13332;DHT22;6735;51.456;12.626;2023-07-02T08:11:03;23.10;53.40
13332;DHT22;6735;51.456;12.626;2023-07-02T08:13:28;23.20;53.20
13332;DHT22;6735;51.456;12.626;2023-07-02T08:15:53;23.60;52.70
13332;DHT22;6735;51.456;12.626;2023-07-02T08:18:19;23.70;52.50
13332;DHT22;6735;51.456;12.626;2023-07-02T08:20:44;23.60;52.60
13332;DHT22;6735;51.456;12.626;2023-07-02T08:23:10;23.50;51.90
13332;DHT22;6735;51.456;12.626;2023-07-02T08:25:37;23.40;51.60
13332;DHT22;6735;51.456;12.626;2023-07-02T08:28:02;23.10;52.00
13332;DHT22;6735;51.456;12.626;2023-07-02T08:30:28;23.00;52.20
13332;DHT22;6735;51.456;12.626;2023-07-02T08:32:53;22.70;53.20
13332;DHT22;6735;51.456;12.626;2023-07-02T08:35:20;22.50;53.00
13332;DHT22;6735;51.456;12.626;2023-07-02T08:37:45;22.40;53.50
13332;DHT22;6735;51.456;12.626;2023-07-02T08:40:18;22.30;53.50
13332;DHT22;6735;51.456;12.626;2023-07-02T08:42:45;22.20;53.40
13332;DHT22;6735;51.456;12.626;2023-07-02T08:45:14;22.10;53.60
13332;DHT22;6735;51.456;12.626;2023-07-02T08:47:40;22.20;53.40
13332;DHT22;6735;51.456;12.626;2023-07-02T08:50:06;22.40;53.20
13332;DHT22;6735;51.456;12.626;2023-07-02T08:52:31;22.30;53.60
13332;DHT22;6735;51.456;12.626;2023-07-02T08:54:57;22.50;52.90
13332;DHT22;6735;51.456;12.626;2023-07-02T08:57:22;22.50;52.70
13332;DHT22;6735;51.456;12.626;2023-07-02T08:59:48;22.40;52.90
13332;DHT22;6735;51.456;12.626;2023-07-02T09:02:16;22.40;52.90
13332;DHT22;6735;51.456;12.626;2023-07-02T09:04:42;22.60;53.10
13332;DHT22;6735;51.456;12.626;2023-07-02T09:07:09;22.50;52.80
13332;DHT22;6735;51.456;12.626;2023-07-02T09:09:48;22.50;52.70
13332;DHT22;6735;51.456;12.626;2023-07-02T09:12:30;22.70;51.50
13332;DHT22;6735;51.456;12.626;2023-07-02T09:15:02;22.80;51.20
13332;DHT22;6735;51.456;12.626;2023-07-02T09:17:37;22.80;51.30
13332;DHT22;6735;51.456;12.626;2023-07-02T09:20:05;22.90;51.30
13332;DHT22;6735;51.456;12.626;2023-07-02T09:22:32;22.90;51.60
13332;DHT22;6735;51.456;12.626;2023-07-02T09:24:59;22.70;52.00
13332;DHT22;6735;51.456;12.626;2023-07-02T09:27:40;22.70;52.40
13332;DHT22;6735;51.456;12.626;2023-07-02T09:30:11;22.90;52.30
13332;DHT22;6735;51.456;12.626;2023-07-02T09:32:38;23.10;51.80
13332;DHT22;6735;51.456;12.626;2023-07-02T09:35:04;23.70;50.90
13332;DHT22;6735;51.456;12.626;2023-07-02T09:37:30;24.20;50.40
13332;DHT22;6735;51.456;12.626;2023-07-02T09:39:56;25.10;49.20
13332;DHT22;6735;51.456;12.626;2023-07-02T09:42:22;25.90;47.10
13332;DHT22;6735;51.456;12.626;2023-07-02T09:44:52;26.10;46.90
13332;DHT22;6735;51.456;12.626;2023-07-02T09:47:19;25.90;47.40
13332;DHT22;6735;51.456;12.626;2023-07-02T09:49:53;25.40;47.30
13332;DHT22;6735;51.456;12.626;2023-07-02T09:52:19;24.40;48.30
13332;DHT22;6735;51.456;12.626;2023-07-02T09:54:45;23.50;49.80
13332;DHT22;6735;51.456;12.626;2023-07-02T09:57:11;22.90;50.70
13332;DHT22;6735;51.456;12.626;2023-07-02T09:59:38;22.90;50.20
13332;DHT22;6735;51.456;12.626;2023-07-02T10:02:04;23.20;49.80
13332;DHT22;6735;51.456;12.626;2023-07-02T10:04:43;23.70;49.00
13332;DHT22;6735;51.456;12.626;2023-07-02T10:07:09;24.30;47.80
13332;DHT22;6735;51.456;12.626;2023-07-02T10:09:40;24.40;48.10
13332;DHT22;6735;51.456;12.626;2023-07-02T10:12:19;25.00;47.70
13332;DHT22;6735;51.456;12.626;2023-07-02T10:14:45;25.00;47.30
13332;DHT22;6735;51.456;12.626;2023-07-02T10:17:40;24.90;47.90
13332;DHT22;6735;51.456;12.626;2023-07-02T10:20:07;24.60;47.70
13332;DHT22;6735;51.456;12.626;2023-07-02T10:22:46;24.30;48.90
13332;DHT22;6735;51.456;12.626;2023-07-02T10:25:26;24.40;48.90
13332;DHT22;6735;51.456;12.626;2023-07-02T10:27:52;24.40;48.80
13332;DHT22;6735;51.456;12.626;2023-07-02T10:30:17;24.50;48.70
13332;DHT22;6735;51.456;12.626;2023-07-02T10:32:43;24.70;48.60
13332;DHT22;6735;51.456;12.626;2023-07-02T10:35:18;25.40;47.50
13332;DHT22;6735;51.456;12.626;2023-07-02T10:37:44;26.10;45.40
13332;DHT22;6735;51.456;12.626;2023-07-02T10:40:11;26.40;44.00
13332;DHT22;6735;51.456;12.626;2023-07-02T10:42:47;26.90;44.20
13332;DHT22;6735;51.456;12.626;2023-07-02T10:45:13;26.80;42.60
13332;DHT22;6735;51.456;12.626;2023-07-02T10:47:39;26.20;44.50
13332;DHT22;6735;51.456;12.626;2023-07-02T10:50:16;25.40;44.70
13332;DHT22;6735;51.456;12.626;2023-07-02T10:52:42;25.10;45.10
13332;DHT22;6735;51.456;12.626;2023-07-02T10:55:07;25.20;45.90
13332;DHT22;6735;51.456;12.626;2023-07-02T10:57:33;25.80;45.50
13332;DHT22;6735;51.456;12.626;2023-07-02T11:00:06;26.20;44.40
13332;DHT22;6735;51.456;12.626;2023-07-02T11:02:37;26.30;43.80
13332;DHT22;6735;51.456;12.626;2023-07-02T11:05:04;26.20;43.90
13332;DHT22;6735;51.456;12.626;2023-07-02T11:07:31;26.10;43.60
13332;DHT22;6735;51.456;12.626;2023-07-02T11:09:57;25.80;43.90
13332;DHT22;6735;51.456;12.626;2023-07-02T11:12:30;25.50;44.10
13332;DHT22;6735;51.456;12.626;2023-07-02T11:15:07;25.20;44.30
13332;DHT22;6735;51.456;12.626;2023-07-02T11:17:32;24.90;44.70
13332;DHT22;6735;51.456;12.626;2023-07-02T11:19:58;24.20;45.60
13332;DHT22;6735;51.456;12.626;2023-07-02T11:22:32;23.90;45.90
13332;DHT22;6735;51.456;12.626;2023-07-02T11:25:18;23.70;45.20
13332;DHT22;6735;51.456;12.626;2023-07-02T11:27:45;23.50;45.90
13332;DHT22;6735;51.456;12.626;2023-07-02T11:30:11;23.20;46.40
13332;DHT22;6735;51.456;12.626;2023-07-02T11:32:53;23.20;46.80
13332;DHT22;6735;51.456;12.626;2023-07-02T11:35:20;23.00;48.10
13332;DHT22;6735;51.456;12.626;2023-07-02T11:37:46;23.10;48.30
13332;DHT22;6735;51.456;12.626;2023-07-02T11:40:12;23.40;47.90
13332;DHT22;6735;51.456;12.626;2023-07-02T11:42:39;23.70;47.40
13332;DHT22;6735;51.456;12.626;2023-07-02T11:45:04;24.00;47.30
13332;DHT22;6735;51.456;12.626;2023-07-02T11:47:30;24.30;46.50
13332;DHT22;6735;51.456;12.626;2023-07-02T11:49:55;24.80;45.00
13332;DHT22;6735;51.456;12.626;2023-07-02T11:52:21;25.20;44.90
13332;DHT22;6735;51.456;12.626;2023-07-02T11:54:47;25.20;43.90
13332;DHT22;6735;51.456;12.626;2023-07-02T11:57:13;25.50;43.50
13332;DHT22;6735;51.456;12.626;2023-07-02T11:59:38;25.60;43.10
13332;DHT22;6735;51.456;12.626;2023-07-02T12:02:04;25.90;42.00
13332;DHT22;6735;51.456;12.626;2023-07-02T12:04:30;26.10;42.30
13332;DHT22;6735;51.456;12.626;2023-07-02T12:06:56;26.50;41.60
13332;DHT22;6735;51.456;12.626;2023-07-02T12:09:21;26.70;40.70
13332;DHT22;6735;51.456;12.626;2023-07-02T12:11:47;26.80;39.80
13332;DHT22;6735;51.456;12.626;2023-07-02T12:14:12;26.70;40.00
13332;DHT22;6735;51.456;12.626;2023-07-02T12:16:38;26.60;40.20
13332;DHT22;6735;51.456;12.626;2023-07-02T12:19:03;26.50;41.10
13332;DHT22;6735;51.456;12.626;2023-07-02T12:21:29;26.40;40.50
13332;DHT22;6735;51.456;12.626;2023-07-02T12:23:54;26.10;40.50
13332;DHT22;6735;51.456;12.626;2023-07-02T12:26:20;26.10;40.50
13332;DHT22;6735;51.456;12.626;2023-07-02T12:28:45;26.00;41.20
13332;DHT22;6735;51.456;12.626;2023-07-02T12:31:11;25.80;41.20
13332;DHT22;6735;51.456;12.626;2023-07-02T12:33:38;25.60;41.50
13332;DHT22;6735;51.456;12.626;2023-07-02T12:36:04;25.80;40.70
13332;DHT22;6735;51.456;12.626;2023-07-02T12:38:29;26.20;39.90
13332;DHT22;6735;51.456;12.626;2023-07-02T12:40:55;26.70;39.10
13332;DHT22;6735;51.456;12.626;2023-07-02T12:43:21;27.20;37.70
13332;DHT22;6735;51.456;12.626;2023-07-02T12:45:47;27.60;36.80
13332;DHT22;6735;51.456;12.626;2023-07-02T12:48:12;27.50;36.90
13332;DHT22;6735;51.456;12.626;2023-07-02T12:50:38;27.20;37.10
13332;DHT22;6735;51.456;12.626;2023-07-02T12:53:04;27.50;37.30
13332;DHT22;6735;51.456;12.626;2023-07-02T12:55:30;27.70;36.50
13332;DHT22;6735;51.456;12.626;2023-07-02T12:57:55;27.20;36.30
13332;DHT22;6735;51.456;12.626;2023-07-02T13:00:21;26.90;36.90
13332;DHT22;6735;51.456;12.626;2023-07-02T13:02:48;26.90;37.20
13332;DHT22;6735;51.456;12.626;2023-07-02T13:05:13;27.10;36.90
13332;DHT22;6735;51.456;12.626;2023-07-02T13:07:39;27.50;36.10
13332;DHT22;6735;51.456;12.626;2023-07-02T13:10:05;27.90;35.20
13332;DHT22;6735;51.456;12.626;2023-07-02T13:12:31;27.70;35.70
13332;DHT22;6735;51.456;12.626;2023-07-02T13:14:56;27.70;36.00
13332;DHT22;6735;51.456;12.626;2023-07-02T13:17:21;27.40;35.60
13332;DHT22;6735;51.456;12.626;2023-07-02T13:19:47;27.00;35.70
13332;DHT22;6735;51.456;12.626;2023-07-02T13:22:14;27.00;36.00
13332;DHT22;6735;51.456;12.626;2023-07-02T13:24:39;27.20;36.00
13332;DHT22;6735;51.456;12.626;2023-07-02T13:27:09;27.60;35.60
13332;DHT22;6735;51.456;12.626;2023-07-02T13:29:36;27.60;34.30
13332;DHT22;6735;51.456;12.626;2023-07-02T13:32:01;27.30;35.50
13332;DHT22;6735;51.456;12.626;2023-07-02T13:34:27;27.30;35.30
13332;DHT22;6735;51.456;12.626;2023-07-02T13:36:52;27.20;35.90
13332;DHT22;6735;51.456;12.626;2023-07-02T13:39:18;26.70;36.30
13332;DHT22;6735;51.456;12.626;2023-07-02T13:41:43;26.60;36.40
13332;DHT22;6735;51.456;12.626;2023-07-02T13:44:09;27.00;36.20
13332;DHT22;6735;51.456;12.626;2023-07-02T13:46:34;27.30;35.80
13332;DHT22;6735;51.456;12.626;2023-07-02T13:49:00;27.10;36.00
13332;DHT22;6735;51.456;12.626;2023-07-02T13:51:26;27.20;35.90
13332;DHT22;6735;51.456;12.626;2023-07-02T13:53:51;27.20;36.00
13332;DHT22;6735;51.456;12.626;2023-07-02T13:56:16;27.10;35.80
13332;DHT22;6735;51.456;12.626;2023-07-02T13:58:45;26.80;35.90
13332;DHT22;6735;51.456;12.626;2023-07-02T14:01:12;26.70;35.60
13332;DHT22;6735;51.456;12.626;2023-07-02T14:03:38;27.00;34.60
13332;DHT22;6735;51.456;12.626;2023-07-02T14:06:03;27.20;34.10
13332;DHT22;6735;51.456;12.626;2023-07-02T14:08:29;27.30;34.30
13332;DHT22;6735;51.456;12.626;2023-07-02T14:10:54;27.20;34.50
13332;DHT22;6735;51.456;12.626;2023-07-02T14:13:20;26.80;34.60
13332;DHT22;6735;51.456;12.626;2023-07-02T14:15:45;26.50;34.70
13332;DHT22;6735;51.456;12.626;2023-07-02T14:18:11;26.20;35.20
13332;DHT22;6735;51.456;12.626;2023-07-02T14:20:36;26.30;35.20
13332;DHT22;6735;51.456;12.626;2023-07-02T14:23:02;26.40;35.50
13332;DHT22;6735;51.456;12.626;2023-07-02T14:25:27;26.10;36.00
13332;DHT22;6735;51.456;12.626;2023-07-02T14:27:52;25.80;36.40
13332;DHT22;6735;51.456;12.626;2023-07-02T14:30:18;26.00;36.20
13332;DHT22;6735;51.456;12.626;2023-07-02T14:32:43;26.40;35.80
13332;DHT22;6735;51.456;12.626;2023-07-02T14:35:09;26.40;35.80
13332;DHT22;6735;51.456;12.626;2023-07-02T14:37:34;26.60;35.40
13332;DHT22;6735;51.456;12.626;2023-07-02T14:40:00;26.70;34.90
13332;DHT22;6735;51.456;12.626;2023-07-02T14:42:25;26.60;35.00
13332;DHT22;6735;51.456;12.626;2023-07-02T14:44:51;26.70;35.00
13332;DHT22;6735;51.456;12.626;2023-07-02T14:47:16;26.70;34.60
13332;DHT22;6735;51.456;12.626;2023-07-02T14:49:42;26.60;34.60
13332;DHT22;6735;51.456;12.626;2023-07-02T14:52:07;26.50;34.80
13332;DHT22;6735;51.456;12.626;2023-07-02T14:54:34;26.40;35.10
13332;DHT22;6735;51.456;12.626;2023-07-02T14:56:59;26.50;34.70
13332;DHT22;6735;51.456;12.626;2023-07-02T14:59:24;26.50;34.50
13332;DHT22;6735;51.456;12.626;2023-07-02T15:01:50;26.30;34.70
13332;DHT22;6735;51.456;12.626;2023-07-02T15:04:15;26.20;35.00
13332;DHT22;6735;51.456;12.626;2023-07-02T15:06:41;26.10;34.90
13332;DHT22;6735;51.456;12.626;2023-07-02T15:09:06;26.10;34.70
13332;DHT22;6735;51.456;12.626;2023-07-02T15:11:32;25.90;35.00
13332;DHT22;6735;51.456;12.626;2023-07-02T15:13:57;25.70;35.20
13332;DHT22;6735;51.456;12.626;2023-07-02T15:16:24;25.90;35.00
13332;DHT22;6735;51.456;12.626;2023-07-02T15:18:50;26.20;34.80
13332;DHT22;6735;51.456;12.626;2023-07-02T15:21:15;26.20;34.60
13332;DHT22;6735;51.456;12.626;2023-07-02T15:23:42;26.10;34.80
13332;DHT22;6735;51.456;12.626;2023-07-02T15:26:07;25.90;35.10